Time;durP1;ratioP1;P1;durP2;ratioP2;P2;SDS_P1;SDS_P2;PMS_P1;PMS_P2;Temp;Humidity;BMP_temperature;BMP_pressure;BME280_temperature;BME280_humidity;BME280_pressure;Samples;Min_cycle;Max_cycle;Signal;HPM_P1;HPM_P2
2022/05/21 00:01:55;;;;;;;12.18;10.85;;;;;;;16.97;62.69;100122.70;1713715;83;20886;-80
2022/05/21 00:04:21;;;;;;;13.28;11.63;;;;;;;16.98;62.73;100121.77;1704343;84;20957;-80
2022/05/21 00:06:48;;;;;;;14.40;10.75;;;;;;;17.01;62.83;100127.69;1716649;83;20874;-80
2022/05/21 00:09:14;;;;;;;12.20;11.17;;;;;;;17.03;62.92;100120.62;1701627;83;20869;-80
2022/05/21 00:11:40;;;;;;;12.93;11.60;;;;;;;17.04;62.89;100114.48;1721671;82;20929;-79
2022/05/21 00:14:08;;;;;;;13.13;11.38;;;;;;;17.02;63.07;100098.03;1703611;83;20976;-79
2022/05/21 00:16:34;;;;;;;14.65;12.37;;;;;;;17.05;63.18;100093.96;1716334;83;22823;-81
2022/05/21 00:19:00;;;;;;;13.98;11.75;;;;;;;17.05;63.25;100101.80;1716912;83;20945;-81
2022/05/21 00:21:26;;;;;;;17.43;11.97;;;;;;;17.07;63.38;100092.12;1715794;83;21035;-81
2022/05/21 00:23:53;;;;;;;15.03;13.17;;;;;;;17.10;63.50;100094.57;1715421;83;21127;-81
2022/05/21 00:26:21;;;;;;;15.05;12.55;;;;;;;17.14;63.54;100090.03;1712150;83;21806;-81
2022/05/21 00:28:49;;;;;;;14.87;12.45;;;;;;;17.18;63.60;100076.70;1716024;83;21036;-81
2022/05/21 00:31:18;;;;;;;12.65;11.48;;;;;;;17.21;63.69;100079.62;1715053;83;20997;-81
2022/05/21 00:33:45;;;;;;;13.05;11.78;;;;;;;17.24;63.74;100074.23;1715884;83;20976;-81
2022/05/21 00:36:12;;;;;;;;;;;;;;;17.26;63.81;100058.48;1717382;83;21076;-81
2022/05/21 00:38:40;;;;;;;12.53;11.35;;;;;;;17.25;64.76;100056.33;1715856;83;20263;-80
2022/05/21 00:41:09;;;;;;;13.32;12.03;;;;;;;17.24;63.90;100070.78;1703616;83;21048;-80
2022/05/21 00:43:49;;;;;;;13.18;11.95;;;;;;;17.23;64.00;100073.02;1703500;84;21003;-81
2022/05/21 00:46:29;;;;;;;13.45;11.55;;;;;;;17.25;64.13;100055.48;1696619;83;20989;-81
2022/05/21 00:49:28;;;;;;;13.20;11.95;;;;;;;17.27;64.25;100054.94;1688515;83;20969;-81
2022/05/21 00:52:11;;;;;;;13.90;12.65;;;;;;;17.28;64.32;100054.86;1710900;83;20976;-80
2022/05/21 00:54:42;;;;;;;14.50;13.05;;;;;;;17.31;64.41;100055.16;1715621;83;20993;-82
2022/05/21 00:57:23;;;;;;;16.12;14.55;;;;;;;17.32;64.47;100049.02;1714490;83;20945;-80
2022/05/21 00:59:57;;;;;;;16.10;14.10;;;;;;;17.32;64.53;100040.71;1699101;83;21624;-81
2022/05/21 01:02:37;;;;;;;16.60;14.98;;;;;;;17.32;64.61;100037.25;1690298;83;21000;-81
2022/05/21 01:05:08;;;;;;;21.85;17.10;;;;;;;17.31;64.69;100036.41;1704147;83;21391;-81
2022/05/21 01:07:45;;;;;;;18.92;16.73;;;;;;;17.32;64.75;100043.78;1704361;83;21028;-81
2022/05/21 01:10:15;;;;;;;17.65;15.85;;;;;;;17.32;64.83;100044.63;1715855;83;21060;-81
2022/05/21 01:12:47;;;;;;;20.52;16.48;;;;;;;17.33;64.95;100049.39;1704184;83;21031;-80
2022/05/21 01:15:19;;;;;;;17.02;15.23;;;;;;;17.36;65.09;100054.00;1711812;83;21055;-80
2022/05/21 01:17:46;;;;;;;16.85;15.25;;;;;;;17.37;65.14;100054.37;1714652;83;20961;-80
2022/05/21 01:20:18;;;;;;;16.67;15.03;;;;;;;17.40;65.24;100037.69;1714871;83;21028;-80
2022/05/21 01:22:50;;;;;;;14.83;13.53;;;;;;;17.41;65.33;100030.23;1715220;83;21651;-80
2022/05/21 01:25:24;;;;;;;16.25;13.25;;;;;;;17.42;65.41;100030.61;1714882;83;21024;-80
2022/05/21 01:27:56;;;;;;;14.30;12.88;;;;;;;17.45;65.53;100021.30;1714993;83;21543;-80
2022/05/21 01:30:32;;;;;;;13.88;12.10;;;;;;;17.49;65.68;100034.59;1715385;83;20877;-80
2022/05/21 01:33:05;;;;;;;14.25;10.70;;;;;;;17.52;65.65;100023.97;1716399;83;20953;-80
2022/05/21 01:35:31;;;;;;;9.68;8.88;;;;;;;17.52;65.87;100026.12;1715740;83;20877;-80
2022/05/21 01:37:58;;;;;;;10.18;9.30;;;;;;;17.56;65.89;100007.66;1713093;83;21409;-80
2022/05/21 01:40:24;;;;;;;9.18;8.48;;;;;;;17.58;66.02;100027.56;1694262;83;21395;-80
2022/05/21 01:45:36;;;;;;;7.92;7.28;;;;;;;17.62;66.16;100009.47;1711160;83;21100;-81
2022/05/21 01:48:06;;;;;;;8.35;7.65;;;;;;;17.65;66.29;100008.03;1712123;83;21520;-81
2022/05/21 01:50:34;;;;;;;9.33;8.05;;;;;;;17.70;66.38;100010.36;1728914;83;21023;-81
2022/05/21 01:53:00;;;;;;;8.13;7.40;;;;;;;17.72;66.43;100005.42;1729408;82;21661;-81
2022/05/21 01:55:26;;;;;;;7.62;6.92;;;;;;;17.75;66.60;100013.56;1722316;82;21049;-81
2022/05/21 01:57:52;;;;;;;7.97;7.27;;;;;;;17.74;66.63;100008.80;1720231;81;21693;-80
2022/05/21 02:00:20;;;;;;;9.53;6.90;;;;;;;17.75;66.69;100008.34;1729247;82;21055;-80
2022/05/21 02:02:46;;;;;;;6.83;6.12;;;;;;;17.74;66.76;100012.72;1730814;82;20873;-80
2022/05/21 02:05:13;;;;;;;6.50;6.00;;;;;;;17.75;66.87;100012.26;1730350;82;21533;-80
2022/05/21 02:07:39;;;;;;;7.67;6.92;;;;;;;17.75;66.95;100013.10;1729395;82;21537;-80
2022/05/21 02:10:06;;;;;;;7.30;6.80;;;;;;;17.78;67.08;100017.33;1728946;82;21489;-81
2022/05/21 02:12:34;;;;;;;7.17;6.65;;;;;;;17.79;67.12;100025.08;1728867;83;21464;-80
2022/05/21 02:15:00;;;;;;;8.93;8.10;;;;;;;17.82;67.18;100024.07;1728774;82;20951;-81
2022/05/21 02:17:26;;;;;;;7.53;6.87;;;;;;;17.84;67.26;100028.75;1719983;82;21525;-81
2022/05/21 02:19:52;;;;;;;8.00;7.28;;;;;;;17.84;67.44;100031.37;1722770;82;21654;-81
2022/05/21 02:22:18;;;;;;;8.83;7.93;;;;;;;17.82;67.46;100020.99;1729337;82;20992;-81
2022/05/21 02:24:44;;;;;;;8.87;8.20;;;;;;;17.82;67.62;100028.84;1729062;82;21686;-80
2022/05/21 02:27:13;;;;;;;8.93;7.97;;;;;;;17.83;67.71;100037.06;1728421;82;21693;-80
2022/05/21 02:29:41;;;;;;;8.95;8.10;;;;;;;17.82;67.74;100051.07;1722425;82;21603;-80
2022/05/21 02:32:09;;;;;;;9.00;8.10;;;;;;;17.80;67.91;100054.23;1702584;83;21052;-80
2022/05/21 02:34:35;;;;;;;7.83;7.10;;;;;;;17.76;67.96;100057.94;1721137;82;21052;-80
2022/05/21 02:39:47;;;;;;;8.20;7.47;;;;;;;17.65;68.75;100067.29;1725457;82;21481;-81
2022/05/21 02:45:00;;;;;;;7.55;6.95;;;;;;;17.50;68.65;100068.95;1698669;83;21560;-80
2022/05/21 02:47:26;;;;;;;6.40;6.00;;;;;;;17.45;68.68;100073.12;1680410;84;20992;-81
2022/05/21 02:49:52;;;;;;;6.05;5.35;;;;;;;17.40;68.66;100101.73;1711095;82;21048;-80
2022/05/21 02:52:19;;;;;;;8.33;5.77;;;;;;;17.36;68.94;100102.81;1703145;83;21516;-80
2022/05/21 02:54:44;;;;;;;5.90;5.40;;;;;;;17.28;68.81;100116.73;1712690;83;20984;-80
2022/05/21 02:57:11;;;;;;;5.30;4.90;;;;;;;17.20;68.73;100106.21;1712549;83;21047;-80
2022/05/21 02:59:38;;;;;;;5.28;4.42;;;;;;;17.16;69.08;100126.88;1711799;82;21099;-80
2022/05/21 03:02:05;;;;;;;4.05;3.75;;;;;;;17.06;68.95;100131.38;1712226;83;21354;-80
2022/05/21 03:04:32;;;;;;;3.52;3.22;;;;;;;16.96;68.92;100134.06;1708009;83;21104;-80
2022/05/21 03:06:58;;;;;;;4.80;2.25;;;;;;;16.85;68.95;100154.18;1709816;83;20949;-80
2022/05/21 03:12:11;;;;;;;8.75;1.77;;;;;;;16.56;68.95;100164.72;1712554;83;21065;-80
2022/05/21 03:14:36;;;;;;;;;;;;;;;16.41;69.01;100158.92;1715153;83;21111;-80
2022/05/21 03:17:03;;;;;;;1.50;1.32;;;;;;;16.30;69.06;100164.64;1703609;83;20208;-80
2022/05/21 03:19:32;;;;;;;2.95;1.37;;;;;;;16.22;68.98;100174.12;1708486;83;21032;-80
2022/05/21 03:21:59;;;;;;;1.47;1.25;;;;;;;16.16;69.03;100163.13;1684976;84;21418;-80
2022/05/21 03:24:26;;;;;;;1.60;1.15;;;;;;;16.11;69.09;100164.67;1710472;83;20914;-80
2022/05/21 03:26:53;;;;;;;6.60;1.30;;;;;;;16.07;69.05;100168.80;1713529;83;21702;-80
2022/05/21 03:29:20;;;;;;;1.50;1.40;;;;;;;16.04;69.06;100163.27;1712631;83;20988;-80
2022/05/21 03:31:46;;;;;;;4.72;1.30;;;;;;;16.02;69.03;100169.00;1713461;83;20870;-79
2022/05/21 03:34:13;;;;;;;1.27;1.20;;;;;;;16.01;69.03;100166.47;1712910;83;21032;-80
2022/05/21 03:36:40;;;;;;;1.92;1.47;;;;;;;16.00;69.09;100173.90;1712207;83;21604;-80
2022/05/21 03:39:06;;;;;;;1.20;1.20;;;;;;;15.98;69.07;100173.13;1712419;83;21535;-79
2022/05/21 03:41:32;;;;;;;2.50;1.70;;;;;;;15.96;69.12;100167.13;1711815;82;21613;-79
2022/05/21 03:43:59;;;;;;;5.70;1.30;;;;;;;15.91;69.15;100179.53;1689619;83;21103;-79
2022/05/21 03:46:27;;;;;;;1.20;1.10;;;;;;;15.86;69.17;100168.84;1703138;83;21028;-79
2022/05/21 03:48:53;;;;;;;11.22;1.27;;;;;;;15.81;69.20;100172.58;1712104;83;21037;-79
2022/05/21 03:51:19;;;;;;;1.42;1.15;;;;;;;15.80;69.24;100187.83;1712186;83;21096;-79
2022/05/21 03:53:46;;;;;;;6.63;1.40;;;;;;;15.75;69.27;100180.20;1705628;83;20862;-79
2022/05/21 03:56:20;;;;;;;1.75;1.10;;;;;;;15.76;69.29;100175.84;1698660;83;21045;-79
2022/05/21 03:58:46;;;;;;;1.23;1.10;;;;;;;15.73;69.30;100179.42;1692526;84;21031;-79
2022/05/21 04:01:14;;;;;;;3.08;1.37;;;;;;;15.74;69.35;100178.97;1710864;83;21289;-79
2022/05/21 04:03:40;;;;;;;2.37;0.82;;;;;;;15.75;69.38;100180.66;1712769;83;20933;-79
2022/05/21 04:06:07;;;;;;;5.53;1.20;;;;;;;15.72;69.36;100184.25;1712615;83;20946;-79
2022/05/21 04:08:33;;;;;;;;;;;;;;;15.69;69.45;100183.54;1715710;83;20898;-79
2022/05/21 04:10:59;;;;;;;1.75;0.55;;;;;;;15.66;69.35;100184.52;1713124;83;20674;-79
2022/05/21 04:13:29;;;;;;;5.03;0.93;;;;;;;15.67;69.33;100178.85;1713894;83;20953;-80
2022/05/21 04:15:53;;;;;;;6.45;1.25;;;;;;;15.69;69.36;100183.08;1708032;83;20894;-80
2022/05/21 04:18:20;;;;;;;2.00;1.00;;;;;;;15.75;69.54;100181.97;1710537;83;20890;-80
2022/05/21 04:20:46;;;;;;;4.22;1.00;;;;;;;15.79;69.33;100177.01;1713422;83;20873;-79
2022/05/21 04:23:12;;;;;;;1.40;0.80;;;;;;;15.82;69.30;100185.54;1713418;83;20901;-79
2022/05/21 04:25:39;;;;;;;1.02;0.57;;;;;;;15.82;69.28;100196.42;1708332;83;20964;-79
2022/05/21 04:28:05;;;;;;;1.20;0.50;;;;;;;15.81;69.36;100194.28;1712191;83;21056;-79
2022/05/21 04:30:35;;;;;;;1.50;0.50;;;;;;;15.84;69.24;100205.88;1711338;83;21087;-79
2022/05/21 04:33:02;;;;;;;1.37;0.50;;;;;;;15.87;69.23;100198.38;1711839;83;21088;-79
2022/05/21 04:36:17;;;;;;;4.55;0.57;;;;;;;15.86;69.15;100190.16;1712006;83;21509;-79
2022/05/21 04:37:57;;;;;;;1.90;0.50;;;;;;;15.86;69.10;100195.38;1708115;83;21057;-79
2022/05/21 04:40:24;;;;;;;0.93;0.40;;;;;;;15.86;69.09;100216.23;1714766;82;21044;-79
2022/05/21 04:42:50;;;;;;;3.40;0.40;;;;;;;15.81;69.03;100209.92;1734641;82;21137;-80
2022/05/21 04:45:17;;;;;;;0.47;0.30;;;;;;;15.77;68.94;100204.91;1737134;81;21099;-80
2022/05/21 04:47:43;;;;;;;2.05;0.37;;;;;;;15.75;68.95;100222.38;1730911;82;21336;-80
2022/05/21 04:50:10;;;;;;;5.57;0.50;;;;;;;15.72;68.81;100216.84;1736100;82;20869;-79
2022/05/21 04:52:43;;;;;;;1.17;0.47;;;;;;;15.67;68.81;100209.67;1730841;82;20966;-80
2022/05/21 04:55:10;;;;;;;2.37;0.53;;;;;;;15.63;68.75;100212.02;1726914;81;20905;-80
2022/05/21 04:57:36;;;;;;;2.67;0.57;;;;;;;15.62;68.67;100231.63;1735323;82;21039;-80
2022/05/21 05:00:05;;;;;;;1.55;0.50;;;;;;;15.60;68.53;100230.39;1734402;81;21094;-79
2022/05/21 05:02:31;;;;;;;6.55;0.40;;;;;;;15.56;68.34;100239.25;1736761;82;20920;-80
2022/05/21 05:04:57;;;;;;;0.88;0.37;;;;;;;15.51;68.31;100245.97;1736388;82;20976;-80
2022/05/21 05:07:24;;;;;;;1.10;0.47;;;;;;;15.54;68.35;100247.59;1734998;81;21000;-79
2022/05/21 05:09:51;;;;;;;0.78;0.37;;;;;;;15.58;68.28;100253.10;1731590;82;21052;-78
2022/05/21 05:12:17;;;;;;;;;;;;;;;15.57;68.21;100268.34;1737467;82;21035;-78
2022/05/21 05:14:43;;;;;;;5.08;0.60;;;;;;;15.57;67.71;100265.73;1734999;82;20179;-78
2022/05/21 05:17:13;;;;;;;4.33;0.70;;;;;;;15.64;67.67;100288.45;1731646;81;21773;-78
2022/05/21 05:19:39;;;;;;;4.10;0.72;;;;;;;15.67;67.87;100262.26;1736276;82;20917;-78
2022/05/21 05:22:09;;;;;;;5.13;0.53;;;;;;;16.10;67.82;100256.88;1736370;82;20944;-78
2022/05/21 05:24:38;;;;;;;3.35;0.50;;;;;;;16.32;67.50;100273.70;1736280;81;20916;-78
2022/05/21 05:27:05;;;;;;;6.97;0.75;;;;;;;16.36;67.25;100277.87;1736380;82;20920;-79
2022/05/21 05:29:32;;;;;;;1.07;0.50;;;;;;;16.50;67.33;100285.08;1736588;82;20948;-79
2022/05/21 05:31:58;;;;;;;1.25;0.50;;;;;;;16.70;67.33;100277.17;1735938;82;20924;-79
2022/05/21 05:34:24;;;;;;;0.85;0.30;;;;;;;16.81;67.17;100275.38;1736396;82;20943;-78
2022/05/21 05:36:51;;;;;;;9.10;0.50;;;;;;;16.86;66.51;100285.98;1738202;82;20920;-78
2022/05/21 05:39:18;;;;;;;2.17;0.55;;;;;;;16.86;66.56;100283.38;1734434;81;20893;-78
2022/05/21 05:41:44;;;;;;;1.32;0.40;;;;;;;16.82;66.71;100285.74;1708489;81;21543;-78
2022/05/21 05:44:10;;;;;;;2.33;0.80;;;;;;;16.77;66.19;100296.02;1698410;83;20925;-78
2022/05/21 05:46:36;;;;;;;2.60;0.50;;;;;;;16.72;66.13;100301.45;1712934;83;20942;-79
2022/05/21 05:49:03;;;;;;;3.37;0.67;;;;;;;16.61;66.11;100312.84;1712398;83;20945;-79
2022/05/21 05:51:29;;;;;;;4.47;0.50;;;;;;;16.53;66.08;100319.72;1710893;83;20924;-79
2022/05/21 05:53:56;;;;;;;1.20;0.40;;;;;;;16.45;65.95;100307.92;1712803;83;20906;-79
2022/05/21 05:56:22;;;;;;;1.45;0.75;;;;;;;16.38;65.50;100313.02;1701344;83;20879;-79
2022/05/21 06:01:34;;;;;;;1.92;0.33;;;;;;;16.34;65.70;100334.95;1711700;82;20888;-79
2022/05/21 06:04:00;;;;;;;1.42;0.57;;;;;;;16.49;65.80;100325.14;1706745;82;20925;-79
2022/05/21 06:06:28;;;;;;;1.32;0.70;;;;;;;16.65;65.42;100312.24;1709857;82;20898;-78
2022/05/21 06:08:55;;;;;;;2.70;0.57;;;;;;;16.67;65.20;100333.45;1709558;82;21576;-78
2022/05/21 06:11:21;;;;;;;6.08;0.50;;;;;;;16.72;64.80;100321.49;1707076;82;21096;-78
2022/05/21 06:13:50;;;;;;;3.23;0.90;;;;;;;16.74;64.78;100360.98;1702573;82;21155;-78
2022/05/21 06:16:16;;;;;;;1.55;0.50;;;;;;;16.72;64.66;100341.92;1712864;82;21047;-78
2022/05/21 06:18:43;;;;;;;5.35;0.45;;;;;;;16.70;64.59;100337.69;1715649;82;21060;-78
2022/05/21 06:21:10;;;;;;;2.17;0.60;;;;;;;16.61;63.94;100345.93;1717113;82;21060;-78
2022/05/21 06:23:37;;;;;;;;;;;;;;;16.44;64.30;100357.97;1709912;82;21103;-79
2022/05/21 06:26:03;;;;;;;0.80;0.50;;;;;;;16.26;64.14;100359.23;1701988;82;20206;-79
2022/05/21 06:28:30;;;;;;;1.00;0.75;;;;;;;16.05;64.21;100350.14;1697144;83;21064;-79
2022/05/21 06:30:58;;;;;;;2.87;0.75;;;;;;;15.90;64.23;100363.81;1707472;82;21119;-78
2022/05/21 06:33:31;;;;;;;1.67;0.50;;;;;;;15.81;64.20;100371.56;1709910;82;21053;-78
2022/05/21 06:36:15;;;;;;;3.37;0.70;;;;;;;15.78;64.28;100359.96;1708022;83;21056;-78
2022/05/21 06:38:44;;;;;;;3.58;0.62;;;;;;;15.78;64.16;100371.69;1708771;83;21060;-78
2022/05/21 06:41:11;;;;;;;1.10;0.70;;;;;;;15.82;64.18;100386.30;1698328;83;21064;-78
2022/05/21 06:43:38;;;;;;;0.60;0.60;;;;;;;15.93;64.10;100377.19;1709133;83;22172;-78
2022/05/21 06:46:05;;;;;;;5.28;0.80;;;;;;;16.10;64.16;100371.66;1674110;83;21108;-80
2022/05/21 06:48:31;;;;;;;5.25;0.95;;;;;;;16.46;64.14;100376.17;1703198;83;21056;-79
2022/05/21 06:51:05;;;;;;;2.25;0.50;;;;;;;16.69;63.84;100399.50;1703654;83;21024;-79
2022/05/21 06:53:28;;;;;;;0.70;0.50;;;;;;;16.87;63.73;100393.45;1708131;83;21512;-78
2022/05/21 06:55:54;;;;;;;2.42;0.70;;;;;;;17.18;63.45;100398.09;1710004;83;21112;-79
2022/05/21 06:58:20;;;;;;;1.15;1.05;;;;;;;17.27;63.35;100402.50;1705981;83;21052;-78
2022/05/21 07:00:47;;;;;;;3.60;0.80;;;;;;;17.39;63.28;100407.15;1691902;83;21036;-79
2022/05/21 07:03:13;;;;;;;3.83;1.13;;;;;;;17.64;63.19;100381.98;1709532;83;20976;-77
2022/05/21 07:08:28;;;;;;;1.25;0.60;;;;;;;18.13;63.13;100410.50;1699317;82;21096;-78
2022/05/21 07:10:57;;;;;;;1.05;0.33;;;;;;;18.32;62.65;100416.46;1694636;83;21134;-79
2022/05/21 07:13:25;;;;;;;4.12;0.50;;;;;;;18.39;62.49;100410.45;1694155;83;21066;-79
2022/05/21 07:15:54;;;;;;;4.03;0.42;;;;;;;18.39;62.74;100424.85;1701817;83;21057;-80
2022/05/21 07:18:21;;;;;;;2.25;0.60;;;;;;;18.44;62.68;100435.47;1701665;83;20940;-80
2022/05/21 07:20:48;;;;;;;0.65;0.30;;;;;;;18.41;62.45;100429.55;1702100;82;21042;-80
2022/05/21 07:23:14;;;;;;;2.70;0.50;;;;;;;18.31;62.20;100429.63;1700764;82;21131;-78
2022/05/21 07:25:41;;;;;;;1.97;0.57;;;;;;;18.10;61.89;100424.58;1698166;83;21079;-79
2022/05/21 07:28:08;;;;;;;4.20;0.53;;;;;;;17.89;61.88;100437.41;1705885;82;21080;-78
2022/05/21 07:30:36;;;;;;;3.90;0.60;;;;;;;17.79;61.90;100429.63;1699774;82;20976;-78
2022/05/21 07:33:04;;;;;;;1.70;0.50;;;;;;;17.84;61.64;100438.94;1705587;83;20941;-79
2022/05/21 07:35:30;;;;;;;3.10;0.50;;;;;;;18.03;61.58;100443.28;1702152;82;20924;-78
2022/05/21 07:37:56;;;;;;;0.50;0.30;;;;;;;18.02;61.17;100442.89;1722605;82;20949;-78
2022/05/21 07:40:26;;;;;;;4.50;0.65;;;;;;;17.99;61.27;100446.97;1720166;82;20976;-79
2022/05/21 07:42:53;;;;;;;1.50;0.50;;;;;;;18.07;60.82;100463.98;1712061;82;20941;-80
2022/05/21 07:45:20;;;;;;;3.00;0.47;;;;;;;18.20;60.15;100450.64;1719162;82;20953;-79
2022/05/21 07:47:49;;;;;;;0.98;0.30;;;;;;;18.13;60.14;100479.84;1710968;83;20945;-78
2022/05/21 07:50:17;;;;;;;3.35;0.50;;;;;;;17.87;59.60;100492.88;1700169;82;20944;-78
2022/05/21 07:52:44;;;;;;;2.55;0.40;;;;;;;17.55;59.75;100480.02;1715687;82;21572;-79
2022/05/21 07:55:12;;;;;;;2.62;0.60;;;;;;;17.28;59.85;100484.75;1715174;81;20980;-78
2022/05/21 07:57:38;;;;;;;1.70;0.45;;;;;;;17.08;59.58;100502.66;1705021;82;20948;-79
2022/05/21 08:00:07;;;;;;;1.35;0.40;;;;;;;16.86;59.78;100496.23;1716906;82;20954;-78
2022/05/21 08:02:33;;;;;;;3.20;0.30;;;;;;;16.68;59.62;100504.00;1677732;84;21070;-79
2022/05/21 08:04:59;;;;;;;0.40;0.37;;;;;;;16.57;59.75;100504.45;1679479;83;21155;-79
2022/05/21 08:07:26;;;;;;;1.40;0.30;;;;;;;16.50;59.82;100523.90;1679108;83;21071;-79
2022/05/21 08:09:52;;;;;;;4.20;0.37;;;;;;;16.36;59.54;100517.95;1674501;84;21126;-78
2022/05/21 08:12:18;;;;;;;2.45;0.45;;;;;;;16.27;59.61;100517.02;1670697;84;21795;-78
2022/05/21 08:14:45;;;;;;;0.55;0.30;;;;;;;16.27;59.70;100525.30;1675910;84;21070;-78
2022/05/21 08:17:12;;;;;;;1.17;0.53;;;;;;;16.33;59.71;100520.68;1703704;83;20917;-78
2022/05/21 08:19:41;;;;;;;1.60;0.47;;;;;;;16.41;59.67;100530.80;1697564;83;37163;-78
2022/05/21 08:27:43;;;;;;;2.08;0.30;;;;;;;17.04;59.33;100541.59;1702280;83;21083;-77
2022/05/21 08:30:10;;;;;;;0.70;0.50;;;;;;;17.16;59.33;100542.78;1714718;83;21092;-77
2022/05/21 08:32:37;;;;;;;0.30;0.20;;;;;;;17.29;58.77;100540.48;1714855;83;27003;-77
2022/05/21 08:35:03;;;;;;;;;;;;;;;17.32;58.87;100546.42;1718455;83;20945;-77
2022/05/21 08:37:30;;;;;;;1.07;0.45;;;;;;;17.28;58.16;100554.46;1716159;83;20105;-77
2022/05/21 08:39:56;;;;;;;;;;;;;;;17.20;58.74;100566.11;1718471;83;20901;-77
2022/05/21 08:42:37;;;;;;;1.72;0.30;;;;;;;17.19;58.04;100572.70;1702088;83;20136;-77
2022/05/21 08:45:22;;;;;;;5.40;0.55;;;;;;;17.12;57.86;100572.16;1701226;83;20930;-77
2022/05/21 08:47:59;;;;;;;4.37;0.50;;;;;;;17.11;58.16;100575.69;1686210;83;20906;-77
2022/05/21 08:50:33;;;;;;;6.15;0.88;;;;;;;16.99;57.82;100577.97;1718170;83;21167;-77
2022/05/21 08:53:17;;;;;;;2.85;0.70;;;;;;;16.81;57.90;100584.83;1712155;83;21343;-77
2022/05/21 08:55:50;;;;;;;3.80;0.40;;;;;;;16.71;57.52;100597.41;1709258;83;20937;-77
2022/05/21 08:58:40;;;;;;;0.60;0.37;;;;;;;16.62;57.34;100596.48;1719146;82;21351;-78
2022/05/21 09:01:10;;;;;;;1.05;0.40;;;;;;;16.52;57.52;100590.79;1711866;83;20953;-77
2022/05/21 09:03:38;;;;;;;3.45;0.65;;;;;;;16.57;57.39;100592.37;1712244;83;20882;-77
2022/05/21 09:06:21;;;;;;;3.25;0.60;;;;;;;16.53;57.45;100598.17;1712111;83;20941;-78
2022/05/21 09:08:55;;;;;;;5.17;0.72;;;;;;;16.48;57.35;100597.50;1717573;83;20885;-79
2022/05/21 09:11:45;;;;;;;2.95;0.60;;;;;;;16.38;57.08;100635.31;1712257;83;20882;-79
2022/05/21 09:14:32;;;;;;;2.20;0.95;;;;;;;16.22;57.04;100611.59;1705640;83;20894;-78
2022/05/21 09:17:02;;;;;;;2.47;0.90;;;;;;;16.17;57.18;100627.42;1711915;83;20874;-78
2022/05/21 09:19:42;;;;;;;5.78;1.57;;;;;;;16.21;57.26;100612.50;1730266;82;20948;-78
2022/05/21 09:22:13;;;;;;;2.17;0.60;;;;;;;16.34;57.08;100608.95;1691026;84;20921;-78
2022/05/21 09:24:52;;;;;;;2.37;0.70;;;;;;;16.53;57.08;100612.52;1691931;83;20924;-78
2022/05/21 09:27:39;;;;;;;6.40;0.70;;;;;;;16.73;56.94;100605.19;1710252;83;20878;-78
2022/05/21 09:30:32;;;;;;;3.92;0.80;;;;;;;16.94;56.77;100614.73;1705735;83;20944;-78
2022/05/21 09:33:38;;;;;;;2.42;1.20;;;;;;;17.06;56.71;100619.45;1700371;83;20941;-78
2022/05/21 09:36:05;;;;;;;1.82;0.70;;;;;;;17.16;56.72;100636.86;1709667;83;20909;-78
2022/05/21 09:38:49;;;;;;;2.47;0.53;;;;;;;17.22;56.55;100609.16;1715170;83;20933;-78
2022/05/21 09:41:32;;;;;;;2.92;0.60;;;;;;;17.28;56.49;100623.72;1700117;83;20905;-78
2022/05/21 09:47:15;;;;;;;4.28;0.85;;;;;;;17.31;56.29;100623.59;1699463;82;28135;-77
2022/05/21 09:49:43;;;;;;;0.90;0.60;;;;;;;17.35;56.17;100626.00;1702736;82;20926;-78
2022/05/21 09:52:25;;;;;;;5.20;0.82;;;;;;;17.40;56.30;100625.80;1669366;84;21432;-78
2022/05/21 09:54:51;;;;;;;4.70;0.78;;;;;;;17.51;55.81;100630.95;1700105;83;20929;-77
2022/05/21 09:57:28;;;;;;;4.50;0.77;;;;;;;17.55;55.89;100630.36;1702798;84;20906;-79
2022/05/21 10:00:29;;;;;;;4.80;0.68;;;;;;;17.57;55.99;100633.75;1700541;84;20944;-78
2022/05/21 10:02:59;;;;;;;2.58;0.60;;;;;;;17.60;55.84;100632.31;1702420;83;20954;-78
2022/05/21 10:05:49;;;;;;;3.47;1.70;;;;;;;17.51;55.64;100643.17;1656151;85;20941;-78
2022/05/21 10:11:23;;;;;;;11.10;1.07;;;;;;;17.29;55.49;100645.02;1702755;83;21489;-78
2022/05/21 10:14:05;;;;;;;4.15;0.75;;;;;;;17.26;55.47;100648.61;1675259;84;20922;-78
2022/05/21 10:16:46;;;;;;;6.90;1.85;;;;;;;17.27;55.28;100654.69;1703037;82;21374;-78
2022/05/21 10:19:26;;;;;;;3.42;0.80;;;;;;;17.29;55.12;100651.09;1699589;82;20974;-78
2022/05/21 10:22:16;;;;;;;1.92;0.60;;;;;;;17.34;55.04;100655.67;1701246;84;20981;-78
2022/05/21 10:25:11;;;;;;;2.12;0.82;;;;;;;17.43;55.00;100661.81;1700565;84;20990;-78
2022/05/21 10:28:10;;;;;;;1.95;0.82;;;;;;;17.53;54.76;100653.95;1700249;84;21814;-78
2022/05/21 10:31:20;;;;;;;2.42;0.90;;;;;;;17.59;54.35;100648.91;1700888;84;21069;-78
2022/05/21 10:34:20;;;;;;;3.67;0.80;;;;;;;17.51;54.57;100659.70;1692193;82;21530;-78
2022/05/21 10:37:15;;;;;;;2.92;0.68;;;;;;;17.45;54.79;100656.52;1694420;83;20970;-79
2022/05/21 10:40:16;;;;;;;5.22;1.02;;;;;;;17.52;54.82;100654.88;1632605;87;21606;-78
2022/05/21 10:42:54;;;;;;;3.00;0.98;;;;;;;17.64;54.57;100661.33;1703713;83;21533;-78
2022/05/21 10:45:34;;;;;;;3.80;0.70;;;;;;;17.69;54.61;100667.66;1675235;84;21556;-78
2022/05/21 10:48:33;;;;;;;1.47;0.72;;;;;;;17.71;54.59;100656.67;1696271;84;21115;-79
2022/05/21 10:51:31;;;;;;;2.08;0.60;;;;;;;17.70;54.56;100659.75;1700806;83;21497;-79
2022/05/21 10:54:26;;;;;;;2.02;0.50;;;;;;;17.74;54.37;100656.08;1698492;83;21655;-78
2022/05/21 10:57:16;;;;;;;2.47;0.88;;;;;;;17.75;54.52;100651.23;1715947;83;21458;-78
2022/05/21 11:00:34;;;;;;;4.70;0.80;;;;;;;17.70;54.36;100668.91;1682087;83;20953;-77
2022/05/21 11:03:38;;;;;;;1.62;0.90;;;;;;;17.59;54.42;100663.30;1700751;83;21635;-79
2022/05/21 11:06:32;;;;;;;1.12;0.60;;;;;;;17.56;54.36;100663.43;1717717;83;21546;-78
2022/05/21 11:09:34;;;;;;;1.40;0.70;;;;;;;17.48;54.35;100657.69;1716609;83;21465;-78
2022/05/21 11:12:14;;;;;;;3.02;0.80;;;;;;;17.55;54.29;100661.73;1710664;83;21481;-78
2022/05/21 11:14:57;;;;;;;2.25;0.80;;;;;;;17.59;54.27;100668.98;1717302;83;21545;-77
2022/05/21 11:17:43;;;;;;;2.75;0.60;;;;;;;17.64;54.22;100661.78;1701167;83;21522;-77
2022/05/21 11:20:33;;;;;;;7.80;0.85;;;;;;;17.69;54.30;100666.36;1717936;83;21477;-77
2022/05/21 11:23:25;;;;;;;1.70;0.82;;;;;;;17.71;54.11;100664.06;1710528;83;21540;-77
2022/05/21 11:26:18;;;;;;;1.62;0.70;;;;;;;17.64;54.08;100670.94;1714408;83;21536;-79
2022/05/21 11:28:54;;;;;;;4.45;0.90;;;;;;;17.54;54.05;100671.80;1712009;83;21462;-78
2022/05/21 11:37:21;;;;;;;4.30;0.88;;;;;;;17.20;53.93;100686.31;1700389;83;21347;-78
2022/05/21 11:39:52;;;;;;;3.02;0.95;;;;;;;17.11;53.98;100684.12;1712923;83;21398;-79
2022/05/21 11:42:23;;;;;;;2.37;1.00;;;;;;;17.02;54.01;100688.41;1712649;83;21494;-78
2022/05/21 11:44:56;;;;;;;0.72;0.47;;;;;;;16.96;54.01;100682.59;1711975;83;20949;-78
2022/05/21 11:47:45;;;;;;;6.12;0.80;;;;;;;16.95;54.07;100687.42;1716479;83;21426;-78
2022/05/21 11:50:18;;;;;;;2.47;0.93;;;;;;;16.94;54.10;100698.78;1702196;83;21355;-77
2022/05/21 11:53:05;;;;;;;1.32;0.50;;;;;;;16.95;54.15;100694.80;1685915;85;20885;-78
2022/05/21 11:55:45;;;;;;;4.65;0.90;;;;;;;17.02;54.13;100687.11;1703386;83;21460;-77
2022/05/21 11:58:14;;;;;;;2.75;0.72;;;;;;;17.01;54.04;100687.17;1658024;84;20886;-77
2022/05/21 12:00:44;;;;;;;2.75;0.80;;;;;;;17.05;54.15;100690.05;1712433;83;21477;-77
2022/05/21 12:03:15;;;;;;;3.35;0.82;;;;;;;17.07;54.08;100690.84;1719233;83;20973;-78
2022/05/21 12:05:53;;;;;;;1.52;0.60;;;;;;;17.08;54.09;100685.55;1710545;83;21076;-78
2022/05/21 12:08:35;;;;;;;1.00;0.60;;;;;;;17.16;54.06;100688.66;1707836;83;21904;-78
2022/05/21 12:11:36;;;;;;;5.28;1.25;;;;;;;17.31;54.20;100680.63;1711012;83;20972;-78
2022/05/21 12:14:25;;;;;;;1.55;0.50;;;;;;;17.59;54.24;100678.98;1717584;83;21567;-78
2022/05/21 12:16:57;;;;;;;3.27;0.70;;;;;;;17.90;54.11;100685.47;1710317;83;20918;-79
2022/05/21 12:19:53;;;;;;;1.40;0.50;;;;;;;18.07;54.14;100681.17;1698589;83;21008;-78
2022/05/21 12:22:50;;;;;;;2.25;0.88;;;;;;;18.17;54.10;100683.77;1710443;83;21383;-78